createdAt,value
2023-05-24T00:01:43.949Z,92.80
2023-05-24T00:04:15.517Z,93.10
2023-05-24T00:06:45.835Z,93.60
2023-05-24T00:09:15.436Z,94.10
2023-05-24T00:11:44.940Z,94.60
2023-05-24T00:14:14.644Z,94.60
2023-05-24T00:16:44.399Z,94.20
2023-05-24T00:19:18.939Z,94.70
2023-05-24T00:21:48.899Z,94.80
2023-05-24T00:24:18.712Z,95.00
2023-05-24T00:26:48.841Z,95.50
2023-05-24T00:29:18.953Z,95.10
2023-05-24T00:31:48.489Z,95.50
2023-05-24T00:34:19.816Z,95.90
2023-05-24T00:36:49.411Z,96.40
2023-05-24T00:39:19.024Z,96.50
2023-05-24T00:41:48.655Z,96.50
2023-05-24T00:44:18.544Z,96.20
2023-05-24T00:46:48.654Z,96.30
2023-05-24T00:49:20.926Z,96.30
2023-05-24T00:51:52.384Z,95.90
2023-05-24T00:54:22.911Z,95.80
2023-05-24T00:56:53.946Z,96.00
2023-05-24T00:59:23.865Z,96.20
2023-05-24T01:01:53.411Z,96.30
2023-05-24T01:04:26.256Z,96.40
2023-05-24T01:07:07.861Z,96.30
2023-05-24T01:09:50.155Z,96.50
2023-05-24T01:12:27.748Z,96.90
2023-05-24T01:15:09.221Z,96.70
2023-05-24T01:17:48.843Z,96.40
2023-05-24T01:20:21.443Z,96.50
2023-05-24T01:23:28.544Z,97.00
2023-05-24T01:26:21.081Z,96.70
2023-05-24T01:28:53.457Z,96.90
2023-05-24T01:31:23.526Z,96.80
2023-05-24T01:33:53.492Z,97.00
2023-05-24T01:36:23.507Z,97.10
2023-05-24T01:38:53.714Z,97.10
2023-05-24T01:41:43.416Z,96.60
2023-05-24T01:44:27.963Z,96.30
2023-05-24T01:47:05.113Z,97.60
2023-05-24T01:49:40.790Z,96.60
2023-05-24T01:52:14.842Z,96.20
2023-05-24T01:54:48.608Z,96.20
2023-05-24T01:57:21.685Z,96.50
2023-05-24T01:59:54.678Z,96.30
2023-05-24T02:02:24.637Z,96.50
2023-05-24T02:04:54.547Z,98.30
2023-05-24T02:07:24.316Z,97.20
2023-05-24T02:09:54.437Z,96.40
2023-05-24T02:12:24.658Z,97.50
2023-05-24T02:14:57.760Z,97.60
2023-05-24T02:17:27.514Z,97.50
2023-05-24T02:19:57.829Z,98.10
2023-05-24T02:22:29.850Z,98.10
2023-05-24T02:24:59.872Z,97.60
2023-05-24T02:27:30.811Z,98.50
2023-05-24T02:30:02.281Z,98.50
2023-05-24T02:32:32.127Z,99.60
2023-05-24T02:35:02.104Z,99.90
2023-05-24T02:37:33.021Z,99.90
2023-05-24T02:40:02.631Z,99.90
2023-05-24T02:42:34.382Z,99.90
2023-05-24T02:45:05.938Z,99.90
2023-05-24T02:47:36.625Z,99.90
2023-05-24T02:50:06.596Z,99.90
2023-05-24T02:52:37.735Z,99.90
2023-05-24T02:55:08.883Z,99.90
2023-05-24T02:57:39.505Z,99.90
2023-05-24T03:00:12.391Z,99.90
2023-05-24T03:02:43.882Z,99.90
2023-05-24T03:05:13.552Z,99.90
2023-05-24T03:07:43.150Z,99.90
2023-05-24T03:10:15.842Z,99.90
2023-05-24T03:12:46.483Z,99.90
2023-05-24T03:15:18.830Z,99.90
2023-05-24T03:17:49.189Z,99.90
2023-05-24T03:20:21.673Z,99.90
2023-05-24T03:22:52.369Z,99.90
2023-05-24T03:25:22.378Z,99.90
2023-05-24T03:27:51.989Z,99.90
2023-05-24T03:30:24.160Z,99.90
2023-05-24T03:32:57.605Z,99.90
2023-05-24T03:35:27.873Z,99.90
2023-05-24T03:37:59.142Z,99.90
2023-05-24T03:40:34.059Z,99.90
2023-05-24T03:43:09.914Z,99.90
2023-05-24T03:45:49.388Z,99.90
2023-05-24T03:48:21.320Z,99.90
2023-05-24T03:50:52.757Z,99.90
2023-05-24T03:53:23.551Z,99.90
2023-05-24T03:55:53.413Z,99.90
2023-05-24T03:58:25.167Z,99.90
2023-05-24T04:00:57.002Z,99.90
2023-05-24T04:03:27.704Z,99.90
2023-05-24T04:05:58.388Z,99.90
2023-05-24T04:08:28.211Z,99.90
2023-05-24T04:11:02.527Z,99.90
2023-05-24T04:13:32.630Z,99.90
2023-05-24T04:16:03.783Z,99.90
2023-05-24T04:18:33.983Z,99.90
2023-05-24T04:21:04.731Z,99.90
2023-05-24T04:23:35.158Z,99.90
2023-05-24T04:26:05.073Z,99.90
2023-05-24T04:28:36.115Z,99.90
2023-05-24T04:31:07.979Z,99.90
2023-05-24T04:33:37.576Z,99.90
2023-05-24T04:36:08.728Z,99.90
2023-05-24T04:38:39.461Z,99.90
2023-05-24T04:41:09.684Z,99.90
2023-05-24T04:43:39.195Z,99.90
2023-05-24T04:46:10.517Z,99.90
2023-05-24T04:48:40.154Z,99.90
2023-05-24T04:51:09.950Z,99.90
2023-05-24T04:53:39.879Z,99.90
2023-05-24T04:56:09.579Z,99.90
2023-05-24T04:58:39.466Z,99.90
2023-05-24T05:01:10.848Z,99.90
2023-05-24T05:03:40.729Z,99.90
2023-05-24T05:06:12.917Z,99.90
2023-05-24T05:08:43.031Z,99.90
2023-05-24T05:11:15.418Z,99.90
2023-05-24T05:13:45.426Z,99.90
2023-05-24T05:16:17.812Z,99.90
2023-05-24T05:18:47.716Z,99.90
2023-05-24T05:21:19.677Z,99.90
2023-05-24T05:23:51.634Z,99.90
2023-05-24T05:26:21.967Z,99.90
2023-05-24T05:28:56.502Z,99.90
2023-05-24T05:31:27.927Z,99.90
2023-05-24T05:33:58.773Z,99.90
2023-05-24T05:36:28.476Z,99.90
2023-05-24T05:38:57.886Z,99.90
2023-05-24T05:41:27.512Z,99.90
2023-05-24T05:43:57.310Z,99.90
2023-05-24T05:46:29.295Z,99.90
2023-05-24T05:48:58.970Z,99.90
2023-05-24T05:51:28.677Z,99.90
2023-05-24T05:53:58.513Z,99.90
2023-05-24T05:56:29.049Z,99.90
2023-05-24T05:58:58.842Z,99.90
2023-05-24T06:01:30.687Z,99.90
2023-05-24T06:04:00.374Z,99.90
2023-05-24T06:06:30.219Z,99.90
2023-05-24T06:08:59.820Z,99.90
2023-05-24T06:11:29.568Z,99.90
2023-05-24T06:13:59.647Z,99.90
2023-05-24T06:16:33.008Z,99.90
2023-05-24T06:19:06.267Z,99.30
2023-05-24T06:21:41.586Z,98.90
2023-05-24T06:24:12.720Z,98.80
2023-05-24T06:26:42.446Z,99.10
2023-05-24T06:29:12.258Z,99.00
2023-05-24T06:31:43.903Z,98.80
2023-05-24T06:34:13.709Z,99.20
2023-05-24T06:36:43.532Z,99.90
2023-05-24T06:39:13.544Z,99.90
2023-05-24T06:41:44.721Z,99.90
2023-05-24T06:44:14.960Z,99.90
2023-05-24T06:46:47.006Z,99.90
2023-05-24T06:49:16.902Z,99.90
2023-05-24T06:51:49.868Z,99.90
2023-05-24T06:54:21.323Z,99.90
2023-05-24T06:56:54.516Z,99.90
2023-05-24T06:59:25.249Z,99.90
2023-05-24T07:01:59.522Z,99.90
2023-05-24T07:04:31.321Z,99.90
2023-05-24T07:07:01.239Z,99.90
2023-05-24T07:09:30.854Z,99.90
2023-05-24T07:12:01.162Z,99.90
2023-05-24T07:14:31.175Z,99.90
2023-05-24T07:17:04.828Z,99.90
2023-05-24T07:19:36.234Z,99.60
2023-05-24T07:22:32.667Z,99.90
2023-05-24T07:25:02.066Z,99.20
2023-05-24T07:27:31.678Z,99.90
2023-05-24T07:30:02.010Z,99.50
2023-05-24T07:32:34.667Z,99.90
2023-05-24T07:35:04.698Z,99.40
2023-05-24T07:37:34.407Z,99.20
2023-05-24T07:40:04.225Z,99.50
2023-05-24T07:42:34.039Z,99.40
2023-05-24T07:45:04.158Z,99.50
2023-05-24T07:47:35.853Z,98.80
2023-05-24T07:50:06.240Z,98.70
2023-05-24T07:53:02.054Z,98.70
2023-05-24T07:55:33.842Z,98.40
2023-05-24T07:58:03.729Z,98.10
2023-05-24T08:00:34.160Z,98.00
2023-05-24T08:03:06.125Z,97.90
2023-05-24T08:05:35.934Z,98.40
2023-05-24T08:08:11.174Z,98.30
2023-05-24T08:10:41.092Z,98.30
2023-05-24T08:13:12.132Z,97.80
2023-05-24T08:15:41.974Z,97.90
2023-05-24T08:18:15.234Z,98.30
2023-05-24T08:20:45.405Z,97.80
2023-05-24T08:23:30.315Z,98.20
2023-05-24T08:26:00.438Z,98.00
2023-05-24T08:28:31.191Z,97.80
2023-05-24T08:31:01.177Z,97.40
2023-05-24T08:33:32.528Z,97.10
2023-05-24T08:36:02.147Z,97.70
2023-05-24T08:41:51.550Z,98.10
2023-05-24T08:44:30.049Z,98.60
2023-05-24T08:47:02.009Z,98.60
2023-05-24T08:49:34.497Z,97.70
2023-05-24T08:52:05.850Z,97.40
2023-05-24T08:54:36.172Z,97.90
2023-05-24T08:57:06.169Z,98.10
2023-05-24T08:59:35.882Z,97.30
2023-05-24T09:02:07.532Z,97.80
2023-05-24T09:04:40.323Z,97.40
2023-05-24T09:07:13.312Z,96.50
2023-05-24T09:09:54.283Z,95.70
2023-05-24T09:12:36.653Z,95.00
2023-05-24T09:15:10.400Z,94.20
2023-05-24T09:17:41.769Z,93.80
2023-05-24T09:20:15.074Z,94.50
2023-05-24T09:22:45.456Z,94.60
2023-05-24T09:25:16.903Z,94.80
2023-05-24T09:27:52.446Z,94.80
2023-05-24T09:30:23.034Z,94.40
2023-05-24T09:33:00.640Z,93.80
2023-05-24T09:35:34.379Z,92.50
2023-05-24T09:38:04.491Z,92.20
2023-05-24T09:40:34.409Z,92.40
2023-05-24T09:43:09.365Z,92.00
2023-05-24T09:45:47.179Z,90.80
2023-05-24T09:48:19.105Z,91.50
2023-05-24T09:51:01.625Z,88.40
2023-05-24T09:53:31.330Z,88.50
2023-05-24T09:56:00.932Z,89.20
2023-05-24T09:58:34.745Z,89.30
2023-05-24T10:01:09.172Z,87.30
2023-05-24T10:03:39.475Z,86.70
2023-05-24T10:06:14.422Z,84.40
2023-05-24T10:08:44.325Z,86.40
2023-05-24T10:11:14.650Z,84.80
2023-05-24T10:13:45.595Z,85.40
2023-05-24T10:16:15.524Z,85.10
2023-05-24T10:18:45.321Z,86.90
2023-05-24T10:21:17.115Z,84.10
2023-05-24T10:23:53.151Z,81.30
2023-05-24T10:26:34.621Z,81.40
2023-05-24T10:29:09.976Z,82.30
2023-05-24T10:31:45.451Z,82.60
2023-05-24T10:34:15.925Z,83.80
2023-05-24T10:36:48.009Z,80.90
2023-05-24T10:39:18.330Z,82.40
2023-05-24T10:41:49.774Z,82.50
2023-05-24T10:44:21.639Z,82.90
2023-05-24T10:47:10.608Z,81.60
2023-05-24T10:49:49.112Z,81.60
2023-05-24T10:52:20.873Z,82.00
2023-05-24T10:55:14.048Z,81.00
2023-05-24T10:57:45.758Z,82.20
2023-05-24T11:00:35.614Z,82.90
2023-05-24T11:03:10.994Z,82.70
2023-05-24T11:05:54.940Z,80.50
2023-05-24T11:08:33.792Z,80.90
2023-05-24T11:11:31.956Z,81.60
2023-05-24T11:14:04.709Z,82.40
2023-05-24T11:16:36.453Z,80.50
2023-05-24T11:19:18.497Z,81.40
2023-05-24T11:21:51.588Z,80.90
2023-05-24T11:24:24.049Z,81.10
2023-05-24T11:26:55.406Z,80.90
2023-05-24T11:29:26.344Z,80.30
2023-05-24T11:31:58.275Z,79.90
2023-05-24T11:34:31.603Z,81.60
2023-05-24T11:37:03.772Z,79.60
2023-05-24T11:39:38.295Z,77.80
2023-05-24T11:42:09.866Z,79.90
2023-05-24T11:44:40.364Z,80.10
2023-05-24T11:47:41.158Z,80.40
2023-05-24T11:50:11.649Z,80.60
2023-05-24T11:52:42.159Z,80.70
2023-05-24T11:55:17.401Z,79.20
2023-05-24T11:57:56.642Z,79.50
2023-05-24T12:00:28.297Z,76.70
2023-05-24T12:03:02.146Z,75.30
2023-05-24T12:05:32.440Z,75.50
2023-05-24T12:08:07.045Z,71.70
2023-05-24T12:10:42.265Z,72.30
2023-05-24T12:13:24.227Z,71.50
2023-05-24T12:15:58.535Z,72.40
2023-05-24T12:18:28.815Z,74.10
2023-05-24T12:20:58.725Z,71.30
2023-05-24T12:23:32.546Z,73.00
2023-05-24T12:26:04.502Z,71.20
2023-05-24T12:28:39.532Z,72.10
2023-05-24T12:31:10.810Z,72.80
2023-05-24T12:33:41.312Z,74.00
2023-05-24T12:36:13.172Z,70.90
2023-05-24T12:38:43.898Z,72.20
2023-05-24T12:41:15.248Z,72.40
2023-05-24T12:43:45.872Z,71.40
2023-05-24T12:46:15.497Z,72.00
2023-05-24T12:48:46.018Z,71.60
2023-05-24T12:51:17.254Z,73.90
2023-05-24T12:53:49.536Z,70.50
2023-05-24T12:56:20.991Z,71.40
2023-05-24T12:58:53.764Z,70.00
2023-05-24T13:01:24.867Z,69.10
2023-05-24T13:03:54.683Z,68.70
2023-05-24T13:06:27.301Z,71.10
2023-05-24T13:08:57.413Z,71.00
2023-05-24T13:11:29.070Z,73.20
2023-05-24T13:14:00.165Z,72.40
2023-05-24T13:16:29.940Z,72.00
2023-05-24T13:18:59.834Z,69.10
2023-05-24T13:21:33.439Z,68.80
2023-05-24T13:24:03.718Z,65.30
2023-05-24T13:26:38.163Z,63.90
2023-05-24T13:29:32.361Z,64.90
2023-05-24T13:32:00.755Z,63.50
2023-05-24T13:34:30.579Z,66.60
2023-05-24T13:37:00.681Z,67.40
2023-05-24T13:39:30.619Z,68.80
2023-05-24T13:42:03.945Z,65.40
2023-05-24T13:44:33.793Z,63.40
2023-05-24T13:47:07.371Z,63.80
2023-05-24T13:49:40.881Z,62.80
2023-05-24T13:52:13.565Z,61.60
2023-05-24T13:54:44.619Z,62.30
2023-05-24T13:57:16.168Z,61.10
2023-05-24T13:59:49.050Z,59.30
2023-05-24T14:02:19.727Z,60.30
2023-05-24T14:04:49.742Z,62.70
2023-05-24T14:07:21.077Z,64.50
2023-05-24T14:09:51.692Z,62.90
2023-05-24T14:12:22.924Z,62.20
2023-05-24T14:17:25.762Z,59.60
2023-05-24T14:19:55.448Z,59.70
2023-05-24T14:22:26.498Z,59.20
2023-05-24T14:24:56.715Z,57.40
2023-05-24T14:27:27.941Z,58.20
2023-05-24T14:29:57.749Z,53.50
2023-05-24T14:32:28.342Z,55.10
2023-05-24T14:34:58.300Z,56.20
2023-05-24T14:37:27.901Z,58.90
2023-05-24T14:39:58.792Z,58.30
2023-05-24T14:42:31.017Z,56.50
2023-05-24T14:45:02.865Z,54.60
2023-05-24T14:47:32.616Z,54.40
2023-05-24T14:50:04.962Z,54.20
2023-05-24T14:52:35.185Z,53.60
2023-05-24T14:55:07.801Z,53.10
2023-05-24T14:57:42.172Z,53.20
2023-05-24T15:00:13.634Z,52.50
2023-05-24T15:02:44.301Z,55.00
2023-05-24T15:05:14.158Z,53.70
2023-05-24T15:07:44.901Z,53.70
2023-05-24T15:10:15.941Z,53.60
2023-05-24T15:12:49.142Z,53.30
2023-05-24T15:15:19.255Z,51.50
2023-05-24T15:17:49.141Z,52.50
2023-05-24T15:20:19.665Z,50.60
2023-05-24T15:22:49.709Z,52.20
2023-05-24T15:25:19.637Z,51.60
2023-05-24T15:27:51.901Z,53.00
2023-05-24T15:30:24.472Z,53.60
2023-05-24T15:32:54.362Z,53.10
2023-05-24T15:35:24.410Z,51.40
2023-05-24T15:37:54.524Z,51.30
2023-05-24T15:40:24.816Z,50.50
2023-05-24T15:42:56.215Z,50.10
2023-05-24T15:45:26.006Z,50.60
2023-05-24T15:47:56.491Z,50.50
2023-05-24T15:50:43.793Z,50.10
2023-05-24T15:53:19.818Z,50.30
2023-05-24T15:55:51.470Z,49.20
2023-05-24T15:58:22.818Z,49.80
2023-05-24T16:00:53.762Z,51.10
2023-05-24T16:03:29.275Z,50.00
2023-05-24T16:05:59.209Z,50.00
2023-05-24T16:08:29.961Z,50.20
2023-05-24T16:10:59.773Z,52.10
2023-05-24T16:13:31.216Z,51.10
2023-05-24T16:16:00.823Z,49.20
2023-05-24T16:18:34.895Z,47.80
2023-05-24T16:21:04.909Z,48.10
2023-05-24T16:23:34.756Z,47.70
2023-05-24T16:26:04.887Z,48.40
2023-05-24T16:28:36.530Z,48.00
2023-05-24T16:31:06.659Z,48.70
2023-05-24T16:33:36.458Z,51.20
2023-05-24T16:36:07.006Z,52.70
2023-05-24T16:38:38.866Z,54.00
2023-05-24T16:41:08.700Z,55.70
2023-05-24T16:43:40.292Z,57.00
2023-05-24T16:46:11.391Z,58.00
2023-05-24T16:48:41.231Z,58.70
2023-05-24T16:51:13.331Z,59.50
2023-05-24T16:53:44.589Z,60.00
2023-05-24T16:56:15.335Z,60.60
2023-05-24T16:58:47.085Z,60.70
2023-05-24T17:01:34.121Z,60.30
2023-05-24T17:04:04.102Z,59.80
2023-05-24T17:06:35.272Z,59.80
2023-05-24T17:09:05.534Z,58.80
2023-05-24T17:11:35.575Z,60.00
2023-05-24T17:14:07.781Z,61.50
2023-05-24T17:16:38.143Z,60.90
2023-05-24T17:19:11.893Z,61.20
2023-05-24T17:21:46.312Z,62.80
2023-05-24T17:24:17.065Z,64.10
2023-05-24T17:26:49.123Z,65.60
2023-05-24T17:29:27.224Z,65.80
2023-05-24T17:32:04.463Z,66.90
2023-05-24T17:34:35.663Z,68.70
2023-05-24T17:37:10.095Z,69.00
2023-05-24T17:39:42.135Z,69.80
2023-05-24T17:42:14.297Z,71.20
2023-05-24T17:44:48.212Z,70.80
2023-05-24T17:47:22.332Z,69.80
2023-05-24T17:49:52.441Z,71.00
2023-05-24T17:52:22.859Z,71.80
2023-05-24T17:54:53.596Z,72.50
2023-05-24T17:57:38.976Z,72.50
2023-05-24T18:00:17.996Z,72.40
2023-05-24T18:02:55.438Z,74.00
2023-05-24T18:05:28.170Z,74.60
2023-05-24T18:07:59.229Z,75.40
2023-05-24T18:10:35.176Z,75.30
2023-05-24T18:13:09.999Z,75.50
2023-05-24T18:15:41.962Z,76.80
2023-05-24T18:18:14.162Z,76.60
2023-05-24T18:20:46.655Z,76.40
2023-05-24T18:23:18.566Z,76.20
2023-05-24T18:26:00.256Z,77.40
2023-05-24T18:28:51.674Z,79.00
2023-05-24T18:31:24.574Z,78.90
2023-05-24T18:33:54.784Z,79.70
2023-05-24T18:36:37.595Z,80.30
2023-05-24T18:39:33.223Z,80.80
2023-05-24T18:42:18.108Z,79.90
2023-05-24T18:45:05.598Z,80.60
2023-05-24T18:48:06.666Z,82.30
2023-05-24T18:50:50.188Z,83.20
2023-05-24T18:53:22.667Z,82.10
2023-05-24T18:56:24.314Z,82.00
2023-05-24T18:59:17.373Z,82.50
2023-05-24T19:32:30.961Z,92.90
2023-05-24T19:53:16.623Z,94.00
2023-05-24T20:09:55.217Z,93.90
2023-05-24T20:34:23.128Z,95.80
2023-05-24T20:37:02.380Z,96.60
2023-05-24T20:39:37.809Z,96.70
2023-05-24T20:42:14.382Z,96.50
2023-05-24T20:45:14.101Z,96.60
2023-05-24T20:48:59.463Z,96.60
2023-05-24T21:00:39.503Z,96.80
2023-05-24T21:03:55.170Z,97.60
2023-05-24T21:06:41.156Z,97.10
2023-05-24T21:09:37.198Z,97.00
2023-05-24T21:16:31.755Z,98.90
2023-05-24T21:33:50.048Z,99.90
2023-05-24T21:41:07.607Z,99.90
2023-05-24T21:43:50.952Z,99.90
2023-05-24T21:46:21.290Z,99.90
2023-05-24T21:48:51.788Z,99.90
2023-05-24T21:51:56.112Z,99.90
2023-05-24T21:54:30.326Z,99.90
2023-05-24T21:57:00.527Z,99.90
2023-05-24T21:59:32.194Z,99.90
2023-05-24T22:02:02.430Z,99.90
2023-05-24T22:04:59.072Z,99.90
2023-05-24T22:07:31.776Z,99.90
2023-05-24T22:10:07.087Z,99.90
2023-05-24T22:12:36.473Z,99.90
2023-05-24T22:15:12.547Z,99.90
2023-05-24T22:17:42.865Z,99.90
2023-05-24T22:20:13.518Z,99.90
2023-05-24T22:22:48.761Z,99.90
2023-05-24T22:25:20.283Z,99.90
2023-05-24T22:27:50.529Z,99.80
2023-05-24T22:30:20.325Z,99.90
2023-05-24T22:32:50.067Z,99.80
2023-05-24T22:35:23.731Z,99.20
2023-05-24T22:37:54.981Z,99.00
2023-05-24T22:40:24.691Z,99.10
2023-05-24T22:42:54.501Z,98.70
2023-05-24T22:45:24.431Z,98.20
2023-05-24T22:47:54.573Z,98.20
2023-05-24T22:50:24.861Z,98.10
2023-05-24T22:52:57.227Z,98.10
2023-05-24T22:55:27.154Z,98.70
2023-05-24T22:57:56.750Z,98.50
2023-05-24T23:00:26.984Z,98.50
2023-05-24T23:02:56.852Z,98.20
2023-05-24T23:05:26.393Z,98.00
2023-05-24T23:07:58.673Z,97.70
2023-05-24T23:10:28.366Z,98.00
2023-05-24T23:13:02.281Z,98.00
2023-05-24T23:15:32.495Z,98.20
2023-05-24T23:18:03.815Z,98.60
2023-05-24T23:20:34.429Z,98.30
2023-05-24T23:23:07.700Z,98.20
2023-05-24T23:25:38.196Z,97.80
2023-05-24T23:28:08.115Z,98.00
2023-05-24T23:30:38.848Z,98.00
2023-05-24T23:33:08.474Z,97.90
2023-05-24T23:35:39.505Z,97.70
2023-05-24T23:38:10.838Z,98.00
2023-05-24T23:40:40.450Z,97.70
2023-05-24T23:43:10.262Z,97.40
2023-05-24T23:45:40.291Z,97.80
2023-05-24T23:48:10.271Z,97.50
2023-05-24T23:50:52.955Z,97.40
2023-05-24T23:53:24.873Z,97.10
2023-05-24T23:55:55.509Z,97.50
2023-05-24T23:58:25.615Z,97.40
